Mount Storm, West Virginia
Current Conditions -  °F | °C
As of 8:10 PM on Friday 28 Nov 2014 (Local Time) from KW99 Reporting Station
Broken Clouds Broken Clouds  
Wind Chill: -6°   Ceiling: 11000
Heat Index: -6°   Visibility: 10mi
Dew Point: -10°   Wind: 0mph
Humidity: 77%   Direction: NA
Pressure: 30.26"   Gusts: NA
Location:  39.28°N, 79.24°W
Report Text: KW99 290110Z AUTO 00000KT 10SM BKN110 M06/M10 A3026 RMK AO2 T10611096
Loading
Personal Weather Stations






























Interactive Weather Map New forecast layout! Learn more

10-Day Weather Forecast

Advertisements
Track Severe Weather on mobile